Sagar Kanya — VTJR — position and weather

sailwx.info

Track history (hours):
 
Tides and Currents Weather Stations Pressure Air Temp Water Temp Dewpoint Dewpoint Depression Visibility Wind Speed Wind Dir Waves Ship Positions

Oceanographic research ship Sagar Kanya (India)

Detailed information on ship capabilities available from University of Delaware's Ocean Information Center.

Last reported at 2019-Aug-24 03:08 UTC. Time now 2019-Aug-24 09:35 UTC.
Position N 13°06' E 080°18'.

Type: Other ship. MMSI: 419320000.

Wind from 250 at 8 knots

Barometer 1008.6 mb
Air temperature 30.0 ° C

Date/timePositionNaut miles runAvg speedWind from/ knotsBaromVisibWave heightAir tempDewpointWater temp
2019-Aug-24 03:08N 13°06' E 080°18'0 0.0 250 / 81008.6 30.0
2019-Aug-23 21:08N 13°06' E 080°18'0 0.0 240 / 21007.3 25.9
2019-Aug-23 18:08N 13°06' E 080°18'0 0.0 220 / 41008.7 27.7
2019-Aug-23 15:08N 13°06' E 080°18'0 0.0 170 / 81008.4 28.2
2019-Aug-23 12:08N 13°06' E 080°18'0 0.0 140 / 61005.8 29.1
2019-Aug-23 09:08N 13°06' E 080°18'0 0.0 240 / 21005.4 34.0
2019-Aug-23 06:08N 13°06' E 080°18'0 0.0 260 / 81007.9 32.0
2019-Aug-23 03:08N 13°06' E 080°18'0 0.0 260 / 81008.3 29.1
2019-Aug-23 00:08N 13°06' E 080°18'0 0.0 230 / 41007.0 26.8
2019-Aug-22 21:08N 13°06' E 080°18'0 0.0 250 / 61006.6 27.1
2019-Aug-22 18:08N 13°06' E 080°18'0 0.0 230 / 61007.4 26.9
2019-Aug-22 15:08N 13°06' E 080°18'0 0.0 210 / 21007.4 29.4
2019-Aug-22 12:08N 13°06' E 080°18'0 0.0 230 / 21004.9 32.2
2019-Aug-22 09:08N 13°06' E 080°18'0 0.0 240 / 41005.2 31.8
2019-Aug-22 03:08N 13°06' E 080°18'0 0.0 220 / 41008.1 27.1
2019-Aug-22 00:08N 13°06' E 080°18'0 0.0 290 / 41007.1 26.2
2019-Aug-21 21:08N 13°06' E 080°18'0 0.0 220 / 41005.7 26.8
2019-Aug-21 15:08N 13°06' E 080°18'0 0.0 140 / 41007.0 29.7
2019-Aug-21 12:08N 13°06' E 080°18'0 0.0 270 / 41005.2 32.4
2019-Aug-21 09:08N 13°06' E 080°18'0 0.0 290 / 81005.4 33.1
2019-Aug-21 06:08N 13°06' E 080°18'0 0.0 260 / 81007.3 32.0
2019-Aug-21 03:08N 13°06' E 080°18'0 0.0 260 / 41007.5 28.4
2019-Aug-21 00:08N 13°06' E 080°18'0 0.0 250 / 61006.4 25.8
2019-Aug-20 21:08N 13°06' E 080°18'0 0.0 240 / 61007.0 27.8
2019-Aug-20 17:38N 13°06' E 080°18'0 0.0 220 / 21008.3 28.2
2019-Aug-20 15:08N 13°06' E 080°18'0 0.0 170 / 41007.3 28.0
2019-Aug-20 12:08N 13°06' E 080°18'6 1.0 070 / 21005.8 29.0
2019-Aug-20 06:08N 13°06' E 080°24'0 0.0 280 / 61008.3 29.8
2019-Aug-20 03:08N 13°06' E 080°24'0 0.0 230 / 81009.2 26.8
2019-Aug-20 00:08N 13°06' E 080°24'0 0.0 280 / 101008.1 26.2
2019-Aug-19 21:08N 13°06' E 080°24'31 5.1 240 / 121007.8 27.1
2019-Aug-19 15:08N 12°36' E 080°30'57 9.5 190 / 141008.5 28.7
2019-Aug-19 09:08N 11°42' E 080°48'27 8.9 230 / 101007.7 28.7
2019-Aug-19 06:08N 11°18' E 081°00'3110.2 250 / 141009.8 28.3
2019-Aug-19 03:08N 10°48' E 081°06'27 8.9 260 / 141010.2 28.3
2019-Aug-19 00:08N 10°24' E 081°18'25 8.2 260 / 171008.6 27.3
2019-Aug-18 21:08N 10°00' E 081°24'25 8.2 240 / 211009.6 27.9
2019-Aug-18 18:08N 09°36' E 081°30'27 8.9 250 / 141011.2 27.9
2019-Aug-18 15:08N 09°12' E 081°42'49 8.2 220 / 81011.1 27.8
2019-Aug-18 09:08N 08°24' E 081°54'19 6.3 110 / 101007.9 28.6
2019-Aug-18 06:08N 08°06' E 082°00'3210.8 210 / 61009.8 28.1
2019-Aug-18 03:08N 07°36' E 082°12'31 8.7 220 / 141009.9 28.8
2019-Aug-17 23:38N 07°06' E 082°06'19 7.6 210 / 161008.3 27.3
2019-Aug-17 21:08N 06°48' E 082°00'3610.4 230 / 121008.8 27.1
2019-Aug-17 17:38N 06°12' E 081°54'2710.7 230 / 171011.3 27.8
2019-Aug-17 15:08N 06°00' E 081°30'3510.0 240 / 121009.9 27.5
2019-Aug-17 11:38N 05°42' E 081°00'18 7.2 250 / 101008.5 27.7
2019-Aug-17 09:08N 05°42' E 080°42'54 9.0 260 / 101008.7 27.7
2019-Aug-17 03:08N 05°42' E 079°48'3010.1 280 / 121011.0 28.2
2019-Aug-17 00:08N 05°48' E 079°18'30 9.9 280 / 121009.2 28.0
2019-Aug-16 21:08N 05°48' E 078°48'30 8.7 280 / 101008.6 27.9
2019-Aug-16 17:38N 05°54' E 078°18'24 9.5 310 / 141011.0 28.2
2019-Aug-16 15:08N 05°54' E 077°54'3010.1 310 / 161010.8 28.1
2019-Aug-16 12:08N 06°00' E 077°24'24 8.0 320 / 141008.8 28.3
2019-Aug-16 09:08N 06°00' E 077°00'0 0.0 330 / 171009.2 28.1
2019-Aug-16 06:08N 06°00' E 077°00'0 0.0 330 / 171011.6 27.9
2019-Aug-16 03:08N 06°00' E 077°00'0 0.0 280 / 161011.7 28.9
2019-Aug-16 00:08N 06°00' E 077°00'48 8.1 300 / 161010.2 27.7
2019-Aug-15 18:08N 05°12' E 077°06'25 8.2 300 / 171012.3 28.5
2019-Aug-15 15:08N 04°48' E 077°12'25 8.2 300 / 101012.1 28.6
2019-Aug-15 12:08N 04°24' E 077°18'73 4.9 300 / 121010.1 28.7
2019-Aug-14 21:08N 03°12' E 077°30'12 4.0 290 / 121011.3 28.8
2019-Aug-14 18:08N 03°00' E 077°30'6 2.0 300 / 121013.4 28.8
2019-Aug-14 15:08N 03°00' E 077°36'22 6.2 340 / 121012.6 28.5
2019-Aug-14 11:38N 02°42' E 077°48'2510.2 320 / 101010.3 28.0
2019-Aug-14 09:08N 02°24' E 078°06'22 7.2 300 / 141009.6 29.3
2019-Aug-14 06:08N 02°06' E 078°18'6 2.0 260 / 121012.6 28.2
2019-Aug-14 03:08N 02°06' E 078°24'   300 / 121013.0 27.4
Track history (hours):
 
Tides and Currents Weather Stations Pressure Air Temp Water Temp Dewpoint Dewpoint Depression Visibility Wind Speed Wind Dir Waves Ship Positions

Oceanographic research ship Sagar Kanya (India)

Detailed information on ship capabilities available from University of Delaware's Ocean Information Center.

Last reported at 2019-Aug-24 03:08 UTC. Time now 2019-Aug-24 09:35 UTC.
Position N 13°06' E 080°18'.

Type: Other ship. MMSI: 419320000.

Wind from 250 at 8 knots

Barometer 1008.6 mb
Air temperature 30.0 ° C

Date/timePositionNaut miles runAvg speedWind from/ knotsBaromVisibWave heightAir tempDewpointWater temp
2019-Aug-24 03:08N 13°06' E 080°18'0 0.0 250 / 81008.6 30.0
2019-Aug-23 21:08N 13°06' E 080°18'0 0.0 240 / 21007.3 25.9
2019-Aug-23 18:08N 13°06' E 080°18'0 0.0 220 / 41008.7 27.7
2019-Aug-23 15:08N 13°06' E 080°18'0 0.0 170 / 81008.4 28.2
2019-Aug-23 12:08N 13°06' E 080°18'0 0.0 140 / 61005.8 29.1
2019-Aug-23 09:08N 13°06' E 080°18'0 0.0 240 / 21005.4 34.0
2019-Aug-23 06:08N 13°06' E 080°18'0 0.0 260 / 81007.9 32.0
2019-Aug-23 03:08N 13°06' E 080°18'0 0.0 260 / 81008.3 29.1
2019-Aug-23 00:08N 13°06' E 080°18'0 0.0 230 / 41007.0 26.8
2019-Aug-22 21:08N 13°06' E 080°18'0 0.0 250 / 61006.6 27.1
2019-Aug-22 18:08N 13°06' E 080°18'0 0.0 230 / 61007.4 26.9
2019-Aug-22 15:08N 13°06' E 080°18'0 0.0 210 / 21007.4 29.4
2019-Aug-22 12:08N 13°06' E 080°18'0 0.0 230 / 21004.9 32.2
2019-Aug-22 09:08N 13°06' E 080°18'0 0.0 240 / 41005.2 31.8
2019-Aug-22 03:08N 13°06' E 080°18'0 0.0 220 / 41008.1 27.1
2019-Aug-22 00:08N 13°06' E 080°18'0 0.0 290 / 41007.1 26.2
2019-Aug-21 21:08N 13°06' E 080°18'0 0.0 220 / 41005.7 26.8
2019-Aug-21 15:08N 13°06' E 080°18'0 0.0 140 / 41007.0 29.7
2019-Aug-21 12:08N 13°06' E 080°18'0 0.0 270 / 41005.2 32.4
2019-Aug-21 09:08N 13°06' E 080°18'0 0.0 290 / 81005.4 33.1
2019-Aug-21 06:08N 13°06' E 080°18'0 0.0 260 / 81007.3 32.0
2019-Aug-21 03:08N 13°06' E 080°18'0 0.0 260 / 41007.5 28.4
2019-Aug-21 00:08N 13°06' E 080°18'0 0.0 250 / 61006.4 25.8
2019-Aug-20 21:08N 13°06' E 080°18'0 0.0 240 / 61007.0 27.8
2019-Aug-20 17:38N 13°06' E 080°18'0 0.0 220 / 21008.3 28.2
2019-Aug-20 15:08N 13°06' E 080°18'0 0.0 170 / 41007.3 28.0
2019-Aug-20 12:08N 13°06' E 080°18'6 1.0 070 / 21005.8 29.0
2019-Aug-20 06:08N 13°06' E 080°24'0 0.0 280 / 61008.3 29.8
2019-Aug-20 03:08N 13°06' E 080°24'0 0.0 230 / 81009.2 26.8
2019-Aug-20 00:08N 13°06' E 080°24'0 0.0 280 / 101008.1 26.2
2019-Aug-19 21:08N 13°06' E 080°24'31 5.1 240 / 121007.8 27.1
2019-Aug-19 15:08N 12°36' E 080°30'57 9.5 190 / 141008.5 28.7
2019-Aug-19 09:08N 11°42' E 080°48'27 8.9 230 / 101007.7 28.7
2019-Aug-19 06:08N 11°18' E 081°00'3110.2 250 / 141009.8 28.3
2019-Aug-19 03:08N 10°48' E 081°06'27 8.9 260 / 141010.2 28.3
2019-Aug-19 00:08N 10°24' E 081°18'25 8.2 260 / 171008.6 27.3
2019-Aug-18 21:08N 10°00' E 081°24'25 8.2 240 / 211009.6 27.9
2019-Aug-18 18:08N 09°36' E 081°30'27 8.9 250 / 141011.2 27.9
2019-Aug-18 15:08N 09°12' E 081°42'49 8.2 220 / 81011.1 27.8
2019-Aug-18 09:08N 08°24' E 081°54'19 6.3 110 / 101007.9 28.6
2019-Aug-18 06:08N 08°06' E 082°00'3210.8 210 / 61009.8 28.1
2019-Aug-18 03:08N 07°36' E 082°12'31 8.7 220 / 141009.9 28.8
2019-Aug-17 23:38N 07°06' E 082°06'19 7.6 210 / 161008.3 27.3
2019-Aug-17 21:08N 06°48' E 082°00'3610.4 230 / 121008.8 27.1
2019-Aug-17 17:38N 06°12' E 081°54'2710.7 230 / 171011.3 27.8
2019-Aug-17 15:08N 06°00' E 081°30'3510.0 240 / 121009.9 27.5
2019-Aug-17 11:38N 05°42' E 081°00'18 7.2 250 / 101008.5 27.7
2019-Aug-17 09:08N 05°42' E 080°42'54 9.0 260 / 101008.7 27.7
2019-Aug-17 03:08N 05°42' E 079°48'3010.1 280 / 121011.0 28.2
2019-Aug-17 00:08N 05°48' E 079°18'30 9.9 280 / 121009.2 28.0
2019-Aug-16 21:08N 05°48' E 078°48'30 8.7 280 / 101008.6 27.9
2019-Aug-16 17:38N 05°54' E 078°18'24 9.5 310 / 141011.0 28.2
2019-Aug-16 15:08N 05°54' E 077°54'3010.1 310 / 161010.8 28.1
2019-Aug-16 12:08N 06°00' E 077°24'24 8.0 320 / 141008.8 28.3
2019-Aug-16 09:08N 06°00' E 077°00'0 0.0 330 / 171009.2 28.1
2019-Aug-16 06:08N 06°00' E 077°00'0 0.0 330 / 171011.6 27.9
2019-Aug-16 03:08N 06°00' E 077°00'0 0.0 280 / 161011.7 28.9
2019-Aug-16 00:08N 06°00' E 077°00'48 8.1 300 / 161010.2 27.7
2019-Aug-15 18:08N 05°12' E 077°06'25 8.2 300 / 171012.3 28.5
2019-Aug-15 15:08N 04°48' E 077°12'25 8.2 300 / 101012.1 28.6
2019-Aug-15 12:08N 04°24' E 077°18'73 4.9 300 / 121010.1 28.7
2019-Aug-14 21:08N 03°12' E 077°30'12 4.0 290 / 121011.3 28.8
2019-Aug-14 18:08N 03°00' E 077°30'6 2.0 300 / 121013.4 28.8
2019-Aug-14 15:08N 03°00' E 077°36'22 6.2 340 / 121012.6 28.5
2019-Aug-14 11:38N 02°42' E 077°48'2510.2 320 / 101010.3 28.0
2019-Aug-14 09:08N 02°24' E 078°06'22 7.2 300 / 141009.6 29.3
2019-Aug-14 06:08N 02°06' E 078°18'6 2.0 260 / 121012.6 28.2
2019-Aug-14 03:08N 02°06' E 078°24'   300 / 121013.0 27.4

Dump ship's entire track history